createdAt,value
2022-11-05T00:01:12.775Z,30.55
2022-11-05T00:03:58.064Z,27.77
2022-11-05T00:06:43.474Z,29.05
2022-11-05T00:09:29.572Z,27.92
2022-11-05T00:12:21.078Z,25.60
2022-11-05T00:15:06.603Z,32.60
2022-11-05T00:17:33.643Z,27.77
2022-11-05T00:20:00.387Z,31.77
2022-11-05T00:22:46.353Z,32.75
2022-11-05T00:25:16.894Z,26.77
2022-11-05T00:27:52.135Z,24.60
2022-11-05T00:30:23.880Z,25.67
2022-11-05T00:32:51.990Z,26.50
2022-11-05T00:35:20.873Z,28.83
2022-11-05T00:37:50.229Z,26.50
2022-11-05T00:40:17.534Z,24.10
2022-11-05T00:43:02.777Z,28.85
2022-11-05T00:45:31.032Z,25.33
2022-11-05T00:48:16.249Z,29.38
2022-11-05T00:50:42.974Z,27.92
2022-11-05T00:53:10.137Z,28.33
2022-11-05T00:55:39.697Z,27.15
2022-11-05T00:58:09.757Z,33.63
2022-11-05T01:01:16.824Z,32.80
2022-11-05T01:04:08.870Z,35.35
2022-11-05T01:06:38.250Z,31.80
2022-11-05T01:09:05.179Z,31.50
2022-11-05T01:11:35.369Z,34.75
2022-11-05T01:14:13.466Z,30.75
2022-11-05T01:16:43.204Z,33.53
2022-11-05T01:19:10.761Z,31.20
2022-11-05T01:21:38.054Z,31.98
2022-11-05T01:24:07.395Z,29.35
2022-11-05T01:26:34.345Z,35.17
2022-11-05T01:29:08.713Z,23.77
2022-11-05T01:31:35.764Z,25.05
2022-11-05T01:34:02.540Z,22.67
2022-11-05T01:36:29.273Z,33.53
2022-11-05T01:38:56.038Z,22.48
2022-11-05T01:41:22.874Z,22.15
2022-11-05T01:43:57.298Z,20.02
2022-11-05T01:46:29.713Z,23.73
2022-11-05T01:49:03.366Z,22.10
2022-11-05T01:51:31.133Z,20.58
2022-11-05T01:54:03.000Z,21.23
2022-11-05T01:56:40.972Z,23.00
2022-11-05T01:59:13.807Z,18.50
2022-11-05T02:01:40.746Z,19.95
2022-11-05T02:04:12.634Z,21.40
2022-11-05T02:06:46.316Z,19.50
2022-11-05T02:09:25.122Z,33.88
2022-11-05T02:11:52.140Z,38.25
2022-11-05T02:14:18.984Z,34.08
2022-11-05T02:17:32.979Z,31.35
2022-11-05T02:20:52.739Z,29.50
2022-11-05T02:23:40.603Z,28.90
2022-11-05T02:26:51.796Z,21.65
2022-11-05T02:29:37.300Z,23.42
2022-11-05T02:32:25.283Z,29.92
2022-11-05T02:34:56.864Z,19.58
2022-11-05T02:37:35.562Z,19.77
2022-11-05T02:40:28.941Z,18.30
2022-11-05T02:43:15.127Z,18.30
2022-11-05T02:46:01.633Z,22.58
2022-11-05T02:48:43.950Z,21.98
2022-11-05T02:54:17.008Z,14.93
2022-11-05T02:56:48.343Z,13.65
2022-11-05T02:59:15.051Z,16.95
2022-11-05T03:01:43.712Z,17.70
2022-11-05T03:04:13.155Z,18.70
2022-11-05T03:06:58.533Z,16.40
2022-11-05T03:09:46.851Z,15.77
2022-11-05T03:12:50.529Z,18.08
2022-11-05T03:15:35.765Z,19.98
2022-11-05T03:18:12.957Z,20.20
2022-11-05T03:20:57.030Z,22.65
2022-11-05T03:23:43.983Z,17.35
2022-11-05T03:26:31.437Z,22.02
2022-11-05T03:29:13.073Z,20.20
2022-11-05T03:31:41.336Z,21.45
2022-11-05T03:34:11.634Z,20.75
2022-11-05T03:36:42.798Z,16.80
2022-11-05T03:39:13.973Z,18.37
2022-11-05T03:41:45.528Z,18.77
2022-11-05T03:44:18.508Z,17.08
2022-11-05T03:46:49.395Z,20.60
2022-11-05T03:49:21.022Z,32.08
2022-11-05T03:52:01.516Z,25.98
2022-11-05T03:54:28.613Z,57.83
2022-11-05T03:57:10.647Z,47.78
2022-11-05T03:59:45.519Z,51.22
2022-11-05T04:02:15.083Z,38.15
2022-11-05T04:04:42.193Z,53.17
2022-11-05T04:07:31.382Z,41.70
2022-11-05T04:10:17.117Z,35.72
2022-11-05T04:13:02.704Z,53.25
2022-11-05T04:15:29.724Z,38.92
2022-11-05T04:17:58.893Z,29.17
2022-11-05T04:20:44.740Z,25.75
2022-11-05T04:23:30.022Z,21.23
2022-11-05T04:25:56.748Z,23.00
2022-11-05T04:28:43.438Z,23.75
2022-11-05T04:31:10.101Z,41.83
2022-11-05T04:33:36.789Z,28.60
2022-11-05T04:36:03.640Z,38.05
2022-11-05T04:38:30.319Z,53.50
2022-11-05T04:41:13.445Z,28.65
2022-11-05T04:43:40.169Z,40.53
2022-11-05T04:46:06.954Z,20.15
2022-11-05T04:48:34.146Z,24.83
2022-11-05T04:51:01.261Z,19.58
2022-11-05T04:53:28.099Z,45.17
2022-11-05T04:55:55.105Z,33.13
2022-11-05T04:58:21.827Z,43.28
2022-11-05T05:00:49.929Z,22.13
2022-11-05T05:03:16.707Z,50.35
2022-11-05T05:05:43.367Z,22.70
2022-11-05T05:08:10.053Z,23.83
2022-11-05T05:10:36.758Z,22.52
2022-11-05T05:13:03.490Z,37.30
2022-11-05T05:15:30.684Z,22.67
2022-11-05T05:17:57.407Z,31.13
2022-11-05T05:20:42.664Z,16.92
2022-11-05T05:23:10.877Z,41.65
2022-11-05T05:25:37.817Z,28.33
2022-11-05T05:28:04.662Z,26.15
2022-11-05T05:30:31.354Z,34.13
2022-11-05T05:33:02.735Z,25.63
2022-11-05T05:35:29.901Z,41.80
2022-11-05T05:37:56.770Z,23.45
2022-11-05T05:40:24.102Z,54.72
2022-11-05T05:42:56.821Z,44.80
2022-11-05T05:45:23.509Z,52.67
2022-11-05T05:47:50.205Z,23.05
2022-11-05T05:50:16.927Z,59.60
2022-11-05T05:52:51.811Z,46.60
2022-11-05T05:55:18.465Z,46.97
2022-11-05T05:57:45.302Z,33.92
2022-11-05T06:00:13.031Z,28.88
2022-11-05T06:02:40.075Z,31.17
2022-11-05T06:05:07.251Z,36.60
2022-11-05T06:07:37.176Z,26.08
2022-11-05T06:10:04.882Z,40.58
2022-11-05T06:12:31.913Z,38.13
2022-11-05T06:14:58.663Z,41.47
2022-11-05T06:17:25.362Z,33.95
2022-11-05T06:19:52.009Z,25.63
2022-11-05T06:22:18.696Z,26.08
2022-11-05T06:24:45.405Z,31.75
2022-11-05T06:27:12.193Z,28.80
2022-11-05T06:29:38.880Z,27.48
2022-11-05T06:32:05.602Z,29.88
2022-11-05T06:34:32.283Z,28.60
2022-11-05T06:36:59.766Z,30.35
2022-11-05T06:39:26.461Z,30.33
2022-11-05T06:44:39.959Z,31.00
2022-11-05T06:47:06.782Z,24.85
2022-11-05T06:49:33.491Z,26.98
2022-11-05T06:52:00.268Z,26.20
2022-11-05T06:54:27.124Z,27.25
2022-11-05T06:56:54.963Z,37.10
2022-11-05T06:59:21.666Z,39.17
2022-11-05T07:01:48.454Z,29.60
2022-11-05T07:04:15.332Z,30.25
2022-11-05T07:06:42.318Z,31.83
2022-11-05T07:09:09.270Z,33.47
2022-11-05T07:11:36.158Z,25.63
2022-11-05T07:14:02.945Z,30.15
2022-11-05T07:16:29.693Z,30.92
2022-11-05T07:18:56.399Z,25.98
2022-11-05T07:21:23.151Z,22.10
2022-11-05T07:23:49.954Z,29.52
2022-11-05T07:26:18.454Z,31.55
2022-11-05T07:28:45.383Z,27.25
2022-11-05T07:31:12.087Z,24.45
2022-11-05T07:33:38.892Z,33.88
2022-11-05T07:36:05.915Z,35.72
2022-11-05T07:38:32.723Z,29.58
2022-11-05T07:41:00.358Z,32.67
2022-11-05T07:43:27.642Z,37.45
2022-11-05T07:45:54.443Z,33.42
2022-11-05T07:48:21.553Z,31.75
2022-11-05T07:50:51.926Z,33.53
2022-11-05T07:53:20.608Z,32.42
2022-11-05T07:55:47.521Z,34.17
2022-11-05T07:58:14.498Z,30.67
2022-11-05T08:00:41.337Z,36.15
2022-11-05T08:03:10.729Z,38.67
2022-11-05T08:05:40.350Z,35.75
2022-11-05T08:08:08.779Z,30.45
2022-11-05T08:10:59.127Z,34.00
2022-11-05T08:13:24.145Z,34.60
2022-11-05T08:16:05.445Z,38.22
2022-11-05T08:18:40.487Z,38.47
2022-11-05T08:21:07.449Z,36.75
2022-11-05T08:23:34.199Z,41.22
2022-11-05T08:26:07.280Z,46.97
2022-11-05T08:28:34.211Z,38.78
2022-11-05T08:31:03.799Z,38.92
2022-11-05T08:33:31.448Z,32.63
2022-11-05T08:36:02.232Z,42.42
2022-11-05T08:38:28.967Z,38.78
2022-11-05T08:40:57.875Z,43.58
2022-11-05T08:43:24.912Z,42.78
2022-11-05T08:45:51.862Z,40.83
2022-11-05T08:48:19.370Z,36.63
2022-11-05T08:50:47.366Z,37.53
2022-11-05T08:53:15.315Z,34.55
2022-11-05T08:55:42.419Z,31.75
2022-11-05T08:58:17.294Z,30.13
2022-11-05T09:00:49.305Z,37.97
2022-11-05T09:05:43.351Z,34.05
2022-11-05T09:08:13.421Z,33.53
2022-11-05T09:10:41.015Z,37.47
2022-11-05T09:13:11.714Z,28.65
2022-11-05T09:15:41.886Z,31.75
2022-11-05T09:18:12.845Z,33.65
2022-11-05T09:20:40.103Z,33.33
2022-11-05T09:23:08.275Z,37.63
2022-11-05T09:25:35.458Z,35.33
2022-11-05T09:28:16.392Z,37.50
2022-11-05T09:30:51.456Z,38.65
2022-11-05T09:33:24.076Z,44.53
2022-11-05T09:35:52.496Z,43.92
2022-11-05T09:38:19.583Z,43.35
2022-11-05T09:41:07.238Z,43.92
2022-11-05T09:43:43.442Z,46.20
2022-11-05T09:46:36.379Z,51.03
2022-11-05T09:49:07.379Z,49.22
2022-11-05T09:51:36.049Z,48.72
2022-11-05T09:54:04.099Z,53.28
2022-11-05T09:56:33.797Z,50.20
2022-11-05T09:59:06.364Z,56.88
2022-11-05T10:01:38.067Z,44.67
2022-11-05T10:04:12.641Z,49.55
2022-11-05T10:07:03.585Z,48.45
2022-11-05T10:10:01.853Z,47.45
2022-11-05T10:12:45.376Z,46.95
2022-11-05T10:15:17.857Z,48.42
2022-11-05T10:18:02.842Z,48.03
2022-11-05T10:20:34.521Z,47.55
2022-11-05T10:23:21.522Z,45.78
2022-11-05T10:25:56.597Z,46.50
2022-11-05T10:28:26.273Z,49.80
2022-11-05T10:31:04.144Z,41.03
2022-11-05T10:33:33.891Z,43.58
2022-11-05T10:36:05.323Z,46.22
2022-11-05T10:38:32.874Z,43.83
2022-11-05T10:40:59.566Z,41.75
2022-11-05T10:43:40.795Z,41.65
2022-11-05T10:46:33.816Z,46.33
2022-11-05T10:49:31.616Z,38.78
2022-11-05T10:52:01.948Z,35.38
2022-11-05T10:54:34.815Z,33.33
2022-11-05T10:57:21.540Z,39.92
2022-11-05T10:59:48.276Z,31.92
2022-11-05T11:02:25.898Z,38.63
2022-11-05T11:04:54.774Z,30.83
2022-11-05T11:07:25.974Z,31.08
2022-11-05T11:09:53.374Z,27.63
2022-11-05T11:12:38.271Z,28.65
2022-11-05T11:15:15.276Z,24.77
2022-11-05T11:17:42.132Z,30.85
2022-11-05T11:20:18.602Z,23.80
2022-11-05T11:23:14.377Z,24.20
2022-11-05T11:25:50.891Z,23.55
2022-11-05T11:28:23.740Z,21.05
2022-11-05T11:31:03.437Z,22.52
2022-11-05T11:33:31.747Z,20.42
2022-11-05T11:35:59.173Z,18.13
2022-11-05T11:38:31.139Z,17.90
2022-11-05T11:41:09.239Z,14.80
2022-11-05T11:43:39.909Z,15.65
2022-11-05T11:46:26.189Z,17.52
2022-11-05T11:48:53.114Z,11.90
2022-11-05T11:51:31.817Z,15.48
2022-11-05T11:54:00.559Z,14.70
2022-11-05T11:56:28.939Z,15.68
2022-11-05T11:58:57.376Z,12.00
2022-11-05T12:02:01.435Z,9.57
2022-11-05T12:05:03.407Z,13.55
2022-11-05T12:07:48.338Z,8.70
2022-11-05T12:10:42.636Z,9.82
2022-11-05T12:13:18.733Z,7.43
2022-11-05T12:15:57.543Z,9.10
2022-11-05T12:18:27.132Z,13.68
2022-11-05T12:21:40.696Z,7.47
2022-11-05T12:24:31.029Z,8.45
2022-11-05T12:27:03.728Z,8.85
2022-11-05T12:30:02.446Z,8.82
2022-11-05T12:32:54.217Z,8.45
2022-11-05T12:35:36.120Z,8.68
2022-11-05T12:38:45.941Z,7.57
2022-11-05T12:41:37.524Z,6.97
2022-11-05T12:44:37.432Z,8.00
2022-11-05T12:47:33.265Z,7.45
2022-11-05T12:50:08.621Z,7.78
2022-11-05T12:52:44.256Z,10.32
2022-11-05T12:55:19.222Z,5.95
2022-11-05T12:57:51.518Z,7.18
2022-11-05T13:00:24.365Z,9.43
2022-11-05T13:03:05.121Z,9.30
2022-11-05T13:05:45.151Z,10.02
2022-11-05T13:08:18.828Z,6.45
2022-11-05T13:10:57.141Z,10.90
2022-11-05T13:13:54.346Z,6.35
2022-11-05T13:16:35.552Z,7.60
2022-11-05T13:19:20.544Z,11.93
2022-11-05T13:21:56.146Z,6.50
2022-11-05T13:24:31.078Z,10.18
2022-11-05T13:27:01.136Z,6.93
2022-11-05T13:29:35.226Z,17.10
2022-11-05T13:32:11.946Z,9.55
2022-11-05T13:34:38.710Z,7.05
2022-11-05T13:37:26.479Z,8.23
2022-11-05T13:40:00.590Z,9.23
2022-11-05T13:42:27.379Z,6.22
2022-11-05T13:45:21.959Z,5.20
2022-11-05T13:47:51.709Z,6.20
2022-11-05T13:50:53.346Z,6.90
2022-11-05T13:53:49.611Z,7.22
2022-11-05T13:56:31.361Z,7.50
2022-11-05T13:59:19.691Z,5.90
2022-11-05T14:02:02.657Z,5.72
2022-11-05T14:04:34.416Z,7.47
2022-11-05T14:07:19.454Z,8.80
2022-11-05T14:09:51.037Z,9.00
2022-11-05T14:12:30.625Z,6.78
2022-11-05T14:15:21.100Z,7.05
2022-11-05T14:18:06.327Z,7.95
2022-11-05T14:20:33.038Z,6.15
2022-11-05T14:23:17.892Z,7.13
2022-11-05T14:25:44.575Z,10.93
2022-11-05T14:28:34.573Z,9.82
2022-11-05T14:31:19.402Z,6.40
2022-11-05T14:33:54.960Z,6.65
2022-11-05T14:36:21.603Z,8.88
2022-11-05T14:38:54.363Z,8.65
2022-11-05T14:41:21.819Z,6.45
2022-11-05T14:43:59.523Z,9.35
2022-11-05T14:46:41.406Z,9.73
2022-11-05T14:49:17.652Z,5.20
2022-11-05T14:51:48.089Z,6.03
2022-11-05T14:54:20.805Z,7.82
2022-11-05T14:56:59.399Z,5.63
2022-11-05T14:59:28.946Z,7.45
2022-11-05T15:02:09.684Z,7.00
2022-11-05T15:04:37.655Z,9.88
2022-11-05T15:07:04.378Z,6.93
2022-11-05T15:09:44.737Z,7.63
2022-11-05T15:12:19.826Z,9.52
2022-11-05T15:15:00.549Z,10.15
2022-11-05T15:17:48.976Z,11.30
2022-11-05T15:20:28.686Z,5.25
2022-11-05T15:23:00.457Z,8.68
2022-11-05T15:25:52.761Z,9.60
2022-11-05T15:28:43.652Z,5.55
2022-11-05T15:31:13.462Z,5.53
2022-11-05T15:33:41.613Z,7.10
2022-11-05T15:36:25.180Z,4.75
2022-11-05T15:39:22.894Z,7.80
2022-11-05T15:41:39.005Z,9.23
2022-11-05T15:44:05.756Z,7.82
2022-11-05T15:46:32.623Z,7.18
2022-11-05T15:49:04.710Z,5.13
2022-11-05T15:54:29.823Z,9.95
2022-11-05T15:56:52.011Z,9.20
2022-11-05T15:59:23.590Z,7.90
2022-11-05T16:02:15.533Z,7.05
2022-11-05T16:04:47.694Z,4.85
2022-11-05T16:09:50.037Z,6.63
2022-11-05T16:12:19.671Z,8.32
2022-11-05T16:15:08.060Z,10.32
2022-11-05T16:17:37.750Z,5.03
2022-11-05T16:20:18.049Z,13.85
2022-11-05T16:22:50.050Z,8.30
2022-11-05T16:25:24.342Z,9.68
2022-11-05T16:27:51.062Z,6.82
2022-11-05T16:30:19.353Z,7.38
2022-11-05T16:32:47.365Z,13.70
2022-11-05T16:35:19.920Z,7.45
2022-11-05T16:37:51.875Z,9.00
2022-11-05T16:40:24.792Z,11.60
2022-11-05T16:42:55.311Z,14.77
2022-11-05T16:45:24.628Z,10.57
2022-11-05T16:47:51.879Z,13.48
2022-11-05T16:50:20.896Z,8.98
2022-11-05T16:52:47.926Z,5.90
2022-11-05T16:55:16.142Z,7.40
2022-11-05T16:57:45.404Z,10.10
2022-11-05T17:00:17.387Z,6.65
2022-11-05T17:02:45.494Z,10.48
2022-11-05T17:05:28.393Z,7.03
2022-11-05T17:07:55.935Z,6.18
2022-11-05T17:10:24.760Z,6.88
2022-11-05T17:12:52.216Z,6.20
2022-11-05T17:15:26.489Z,7.88
2022-11-05T17:17:54.363Z,10.65
2022-11-05T17:20:28.534Z,6.07
2022-11-05T17:22:56.452Z,8.32
2022-11-05T17:25:24.111Z,9.10
2022-11-05T17:27:51.246Z,8.20
2022-11-05T17:30:18.228Z,8.48
2022-11-05T17:32:44.988Z,6.25
2022-11-05T17:35:14.176Z,11.50
2022-11-05T17:37:41.547Z,8.70
2022-11-05T17:40:12.447Z,11.55
2022-11-05T17:42:39.203Z,10.13
2022-11-05T17:45:06.855Z,11.02
2022-11-05T17:47:35.079Z,8.20
2022-11-05T17:50:01.890Z,7.22
2022-11-05T17:52:29.035Z,8.80
2022-11-05T17:54:55.776Z,9.93
2022-11-05T17:57:22.505Z,10.48
2022-11-05T17:59:49.235Z,10.40
2022-11-05T18:02:16.100Z,8.63
2022-11-05T18:04:42.953Z,7.93
2022-11-05T18:07:10.532Z,8.25
2022-11-05T18:09:37.848Z,9.43
2022-11-05T18:12:05.204Z,9.57
2022-11-05T18:14:32.322Z,7.32
2022-11-05T18:17:00.293Z,11.48
2022-11-05T18:19:28.003Z,17.75
2022-11-05T18:21:55.546Z,9.52
2022-11-05T18:24:43.973Z,7.85
2022-11-05T18:27:10.812Z,8.70
2022-11-05T18:29:37.977Z,10.15
2022-11-05T18:32:05.115Z,6.78
2022-11-05T18:34:32.060Z,10.40
2022-11-05T18:36:58.743Z,9.25
2022-11-05T18:39:26.711Z,9.18
2022-11-05T18:41:53.438Z,10.32
2022-11-05T18:44:22.732Z,12.98
2022-11-05T18:46:58.028Z,7.40
2022-11-05T18:49:26.153Z,10.07
2022-11-05T18:51:52.961Z,5.80
2022-11-05T18:54:19.932Z,9.27
2022-11-05T18:56:46.658Z,8.75
2022-11-05T18:59:35.955Z,5.60
2022-11-05T19:02:03.107Z,4.43
2022-11-05T19:04:30.568Z,5.90
2022-11-05T19:07:03.121Z,7.95
2022-11-05T19:09:31.503Z,6.65
2022-11-05T19:11:58.318Z,6.20
2022-11-05T19:14:25.104Z,5.25
2022-11-05T19:16:51.782Z,8.35
2022-11-05T19:19:18.555Z,8.60
2022-11-05T19:21:45.726Z,5.53
2022-11-05T19:24:16.875Z,8.32
2022-11-05T19:26:44.239Z,5.70
2022-11-05T19:29:11.212Z,10.70
2022-11-05T19:31:38.945Z,11.30
2022-11-05T19:34:05.822Z,4.70
2022-11-05T19:36:33.776Z,6.93
2022-11-05T19:39:04.060Z,9.50
2022-11-05T19:41:30.940Z,8.70
2022-11-05T19:43:59.145Z,6.63
2022-11-05T19:46:26.254Z,5.68
2022-11-05T19:48:53.144Z,6.03
2022-11-05T19:51:22.926Z,8.38
2022-11-05T19:53:52.340Z,4.65
2022-11-05T19:56:21.345Z,8.32
2022-11-05T19:58:48.780Z,6.20
2022-11-05T20:01:17.044Z,7.43
2022-11-05T20:03:44.589Z,6.47
2022-11-05T20:06:17.040Z,2.92
2022-11-05T20:09:14.811Z,8.82
2022-11-05T20:11:31.715Z,7.45
2022-11-05T20:13:58.468Z,9.18
2022-11-05T20:16:32.175Z,8.02
2022-11-05T20:18:58.955Z,6.03
2022-11-05T20:21:25.796Z,6.55
2022-11-05T20:23:56.499Z,6.15
2022-11-05T20:26:23.678Z,6.80
2022-11-05T20:28:50.437Z,14.48
2022-11-05T20:31:17.920Z,9.98
2022-11-05T20:33:45.888Z,5.53
2022-11-05T20:36:16.030Z,4.45
2022-11-05T20:38:44.672Z,3.33
2022-11-05T20:41:13.007Z,6.35
2022-11-05T20:43:43.988Z,7.25
2022-11-05T20:46:15.130Z,7.90
2022-11-05T20:48:43.440Z,4.90
2022-11-05T20:51:13.024Z,5.20
2022-11-05T20:53:40.378Z,8.95
2022-11-05T20:56:10.439Z,6.78
2022-11-05T20:58:37.807Z,6.00
2022-11-05T21:01:05.669Z,7.88
2022-11-05T21:03:32.873Z,5.50
2022-11-05T21:06:04.417Z,4.80
2022-11-05T21:08:31.640Z,9.93
2022-11-05T21:10:58.992Z,5.10
2022-11-05T21:13:26.613Z,5.93
2022-11-05T21:15:56.160Z,5.85
2022-11-05T21:18:25.194Z,11.00
2022-11-05T21:20:52.022Z,8.20
2022-11-05T21:23:19.009Z,5.00
2022-11-05T21:25:46.278Z,5.90
2022-11-05T21:28:14.429Z,9.00
2022-11-05T21:30:44.934Z,9.70
2022-11-05T21:33:13.721Z,5.57
2022-11-05T21:35:44.560Z,4.95
2022-11-05T21:38:13.105Z,5.68
2022-11-05T21:40:40.616Z,5.15
2022-11-05T21:43:08.149Z,4.82
2022-11-05T21:45:34.902Z,10.32
2022-11-05T21:48:01.838Z,8.02
2022-11-05T21:50:47.354Z,5.05
2022-11-05T21:53:33.868Z,4.80
2022-11-05T21:56:23.503Z,4.78
2022-11-05T21:59:09.022Z,10.13
2022-11-05T22:01:35.859Z,5.43
2022-11-05T22:04:03.389Z,6.32
2022-11-05T22:06:33.225Z,7.30
2022-11-05T22:09:00.279Z,9.35
2022-11-05T22:11:26.954Z,5.35
2022-11-05T22:13:53.718Z,8.48
2022-11-05T22:16:20.535Z,5.45
2022-11-05T22:18:47.313Z,5.65
2022-11-05T22:21:18.833Z,7.45
2022-11-05T22:23:45.770Z,7.88
2022-11-05T22:26:12.566Z,7.78
2022-11-05T22:28:39.242Z,9.77
2022-11-05T22:31:13.503Z,9.25
2022-11-05T22:33:40.370Z,5.90
2022-11-05T22:36:07.651Z,6.70
2022-11-05T22:38:34.821Z,5.40
2022-11-05T22:41:13.567Z,8.20
2022-11-05T22:43:40.470Z,6.32
2022-11-05T22:46:11.154Z,6.47
2022-11-05T22:48:39.556Z,6.45
2022-11-05T22:51:15.111Z,6.30
2022-11-05T22:53:42.477Z,6.72
2022-11-05T22:56:13.902Z,8.60
2022-11-05T22:58:41.244Z,10.02
2022-11-05T23:01:11.673Z,8.30
2022-11-05T23:03:40.135Z,9.50
2022-11-05T23:06:43.090Z,5.18
2022-11-05T23:09:49.705Z,7.30
2022-11-05T23:12:28.488Z,5.28
2022-11-05T23:14:57.769Z,8.65
2022-11-05T23:17:48.090Z,8.00
2022-11-05T23:20:38.605Z,4.47
2022-11-05T23:23:28.349Z,8.55
2022-11-05T23:25:59.106Z,6.10
2022-11-05T23:28:26.288Z,6.85
2022-11-05T23:31:11.681Z,6.97
2022-11-05T23:33:38.372Z,6.38
2022-11-05T23:36:24.190Z,5.03
2022-11-05T23:38:50.945Z,6.47
2022-11-05T23:41:36.327Z,8.07
2022-11-05T23:44:22.035Z,4.88
2022-11-05T23:47:07.203Z,6.20
2022-11-05T23:49:33.959Z,6.57
2022-11-05T23:52:00.636Z,6.38
2022-11-05T23:54:27.609Z,6.30
2022-11-05T23:56:54.338Z,9.35
2022-11-05T23:59:21.133Z,7.32
